Time,TemperatureF,DewpointF,PressureIn,WindDirection,WindDirectionDegrees,WindSpeedMPH,WindSpeedGustMPH,Humidity,HourlyPrecipIn,Conditions,Clouds,dailyrainin,SoftwareType,DateUTC
2013-01-08 00:00:00,31.6,26.5,31.30,SW,215,0.0,0.0,81,0.00,,,0.00,VWS V13.01,2013-01-08 05:00:00,
2013-01-08 00:01:00,31.6,26.5,31.29,SW,214,0.0,0.0,81,0.00,,,0.00,VWS V13.01,2013-01-08 05:01:00,
2013-01-08 00:02:00,31.6,26.5,31.29,SW,214,0.0,0.0,81,0.00,,,0.00,VWS V13.01,2013-01-08 05:02:00,
2013-01-08 00:03:00,31.6,26.5,31.29,SW,214,0.0,0.0,81,0.00,,,0.00,VWS V13.01,2013-01-08 05:03:00,
2013-01-08 00:05:00,31.6,26.5,31.30,SW,214,0.0,0.0,81,0.00,,,0.00,VWS V13.01,2013-01-08 05:05:00,
2013-01-08 00:08:00,31.5,26.4,31.29,SW,215,0.0,0.0,81,0.00,,,0.00,VWS V13.01,2013-01-08 05:08:00,
2013-01-08 00:10:00,31.6,26.5,31.29,SW,215,0.0,0.0,81,0.00,,,0.00,VWS V13.01,2013-01-08 05:10:00,
2013-01-08 00:13:00,31.4,26.2,31.29,SW,215,0.0,0.0,81,0.00,,,0.00,VWS V13.01,2013-01-08 05:13:00,
2013-01-08 00:15:00,31.5,26.4,31.29,SW,215,0.0,0.0,81,0.00,,,0.00,VWS V13.01,2013-01-08 05:15:00,
2013-01-08 00:18:00,31.8,26.6,31.29,SW,215,0.0,0.0,81,0.00,,,0.00,VWS V13.01,2013-01-08 05:18:00,
2013-01-08 00:20:00,31.4,26.2,31.29,SW,215,0.0,0.0,81,0.00,,,0.00,VWS V13.01,2013-01-08 05:20:00,
2013-01-08 00:23:00,31.5,26.4,31.29,SW,214,0.0,0.0,81,0.00,,,0.00,VWS V13.01,2013-01-08 05:23:00,
2013-01-08 00:25:00,31.8,26.6,31.29,SW,214,0.0,1.0,81,0.00,,,0.00,VWS V13.01,2013-01-08 05:25:00,
2013-01-08 00:28:00,31.4,26.2,31.29,SW,215,0.0,0.0,81,0.00,,,0.00,VWS V13.01,2013-01-08 05:28:00,
2013-01-08 00:30:00,31.6,26.5,31.29,SW,215,0.0,0.0,81,0.00,,,0.00,VWS V13.01,2013-01-08 05:30:00,
2013-01-08 00:33:00,31.2,26.1,31.29,SW,215,0.0,0.0,81,0.00,,,0.00,VWS V13.01,2013-01-08 05:33:00,
2013-01-08 00:35:00,31.4,26.2,31.29,SW,215,0.0,0.0,81,0.00,,,0.00,VWS V13.01,2013-01-08 05:35:00,
2013-01-08 00:38:00,31.2,26.4,31.29,SW,214,0.0,0.0,82,0.00,,,0.00,VWS V13.01,2013-01-08 05:38:00,
2013-01-08 00:40:00,31.2,26.1,31.29,SW,214,0.0,0.0,81,0.00,,,0.00,VWS V13.01,2013-01-08 05:40:00,
2013-01-08 00:43:00,31.0,25.9,31.29,SW,214,0.0,0.0,81,0.00,,,0.00,VWS V13.01,2013-01-08 05:43:00,
2013-01-08 00:45:00,31.2,26.4,31.29,SW,214,0.0,0.0,82,0.00,,,0.00,VWS V13.01,2013-01-08 05:45:00,
2013-01-08 00:48:00,31.2,26.4,31.29,SW,215,0.0,0.0,82,0.00,,,0.00,VWS V13.01,2013-01-08 05:48:00,
2013-01-08 00:50:00,31.0,25.9,31.29,SW,215,0.0,0.0,81,0.00,,,0.00,VWS V13.01,2013-01-08 05:50:00,
2013-01-08 00:53:00,31.4,26.5,31.29,SW,214,0.0,0.0,82,0.00,,,0.00,VWS V13.01,2013-01-08 05:53:00,
2013-01-08 00:55:00,31.2,26.4,31.29,SW,215,0.0,0.0,82,0.00,,,0.00,VWS V13.01,2013-01-08 05:55:00,
2013-01-08 00:58:00,31.3,26.2,31.29,SW,215,0.0,0.0,81,0.00,,,0.00,VWS V13.01,2013-01-08 05:58:00,
2013-01-08 01:00:00,31.4,26.5,31.29,SW,215,0.0,0.0,82,0.00,,,0.00,VWS V13.01,2013-01-08 06:00:00,
2013-01-08 01:03:00,31.1,26.3,31.29,SW,215,0.0,0.0,82,0.00,,,0.00,VWS V13.01,2013-01-08 06:03:00,
2013-01-08 01:05:00,31.3,26.2,31.29,SW,214,0.0,0.0,81,0.00,,,0.00,VWS V13.01,2013-01-08 06:05:00,
2013-01-08 01:08:00,30.9,26.1,31.29,SW,214,0.0,0.0,82,0.00,,,0.00,VWS V13.01,2013-01-08 06:08:00,
2013-01-08 01:10:00,31.1,26.3,31.29,SW,215,0.0,1.0,82,0.00,,,0.00,VWS V13.01,2013-01-08 06:10:00,
2013-01-08 01:13:00,30.7,25.9,31.29,SW,214,0.0,0.0,82,0.00,,,0.00,VWS V13.01,2013-01-08 06:13:00,
2013-01-08 01:15:00,30.8,26.0,31.29,SW,214,0.0,0.0,82,0.00,,,0.00,VWS V13.01,2013-01-08 06:15:00,
2013-01-08 01:18:00,30.7,25.9,31.29,SW,215,0.0,0.0,82,0.00,,,0.00,VWS V13.01,2013-01-08 06:18:00,
2013-01-08 01:20:00,30.7,25.9,31.29,SW,214,0.0,0.0,82,0.00,,,0.00,VWS V13.01,2013-01-08 06:20:00,
2013-01-08 01:23:00,30.6,25.8,31.29,SW,215,0.0,0.0,82,0.00,,,0.00,VWS V13.01,2013-01-08 06:23:00,
2013-01-08 01:25:00,30.7,25.9,31.29,SW,215,0.0,0.0,82,0.00,,,0.00,VWS V13.01,2013-01-08 06:25:00,
2013-01-08 01:28:00,30.6,25.8,31.29,SW,214,0.0,0.0,82,0.00,,,0.00,VWS V13.01,2013-01-08 06:28:00,
2013-01-08 01:30:00,30.6,25.8,31.29,SW,215,0.0,0.0,82,0.00,,,0.00,VWS V13.01,2013-01-08 06:30:00,
2013-01-08 01:33:00,30.7,26.2,31.29,SW,215,0.0,0.0,83,0.00,,,0.00,VWS V13.01,2013-01-08 06:33:00,
2013-01-08 01:35:00,30.5,25.7,31.29,SW,215,0.0,0.0,82,0.00,,,0.00,VWS V13.01,2013-01-08 06:35:00,
2013-01-08 01:38:00,30.8,26.3,31.29,SW,215,0.0,0.0,83,0.00,,,0.00,VWS V13.01,2013-01-08 06:38:00,
2013-01-08 01:40:00,30.7,26.2,31.29,SW,214,0.0,0.0,83,0.00,,,0.00,VWS V13.01,2013-01-08 06:40:00,
2013-01-08 01:43:00,30.6,25.8,31.29,SW,214,0.0,0.0,82,0.00,,,0.00,VWS V13.01,2013-01-08 06:43:00,
2013-01-08 01:45:00,30.8,26.3,31.29,SW,215,0.0,0.0,83,0.00,,,0.00,VWS V13.01,2013-01-08 06:45:00,
2013-01-08 01:48:00,30.4,25.6,31.29,SW,215,0.0,0.0,82,0.00,,,0.00,VWS V13.01,2013-01-08 06:48:00,
2013-01-08 01:50:00,30.6,25.8,31.29,SW,215,0.0,0.0,82,0.00,,,0.00,VWS V13.01,2013-01-08 06:50:00,
2013-01-08 01:53:00,30.3,25.8,31.29,SW,214,0.0,0.0,83,0.00,,,0.00,VWS V13.01,2013-01-08 06:53:00,
2013-01-08 01:55:00,30.5,25.7,31.29,SW,215,0.0,0.0,82,0.00,,,0.00,VWS V13.01,2013-01-08 06:55:00,
2013-01-08 01:58:00,30.2,25.7,31.29,SW,214,0.0,0.0,83,0.00,,,0.00,VWS V13.01,2013-01-08 06:58:00,
2013-01-08 02:00:00,30.3,25.8,31.29,SW,214,0.0,0.0,83,0.00,,,0.00,VWS V13.01,2013-01-08 07:00:00,
2013-01-08 02:03:00,30.2,25.7,31.29,SW,215,0.0,0.0,83,0.00,,,0.00,VWS V13.01,2013-01-08 07:03:00,
2013-01-08 02:05:00,30.2,25.7,31.29,SW,215,0.0,0.0,83,0.00,,,0.00,VWS V13.01,2013-01-08 07:05:00,
2013-01-08 02:08:00,30.3,25.8,31.29,SW,215,0.0,0.0,83,0.00,,,0.00,VWS V13.01,2013-01-08 07:08:00,
2013-01-08 02:10:00,30.2,25.7,31.29,SW,215,0.0,0.0,83,0.00,,,0.00,VWS V13.01,2013-01-08 07:10:00,
2013-01-08 02:13:00,30.2,25.7,31.29,SW,215,0.0,0.0,83,0.00,,,0.00,VWS V13.01,2013-01-08 07:13:00,
2013-01-08 02:15:00,30.3,25.8,31.29,SW,214,0.0,0.0,83,0.00,,,0.00,VWS V13.01,2013-01-08 07:15:00,
2013-01-08 02:18:00,30.1,25.6,31.29,SW,215,0.0,0.0,83,0.00,,,0.00,VWS V13.01,2013-01-08 07:18:00,
2013-01-08 02:20:00,30.2,25.7,31.29,SW,215,0.0,0.0,83,0.00,,,0.00,VWS V13.01,2013-01-08 07:20:00,
2013-01-08 02:23:00,30.1,25.9,31.29,SW,214,0.0,0.0,84,0.00,,,0.00,VWS V13.01,2013-01-08 07:23:00,
2013-01-08 02:25:00,30.1,25.6,31.29,SW,215,0.0,0.0,83,0.00,,,0.00,VWS V13.01,2013-01-08 07:25:00,
2013-01-08 02:28:00,30.2,26.0,31.29,SW,214,0.0,0.0,84,0.00,,,0.00,VWS V13.01,2013-01-08 07:28:00,
2013-01-08 02:30:00,30.1,25.9,31.29,SW,215,0.0,0.0,84,0.00,,,0.00,VWS V13.01,2013-01-08 07:30:00,
2013-01-08 02:33:00,30.2,26.0,31.29,SW,215,0.0,0.0,84,0.00,,,0.00,VWS V13.01,2013-01-08 07:33:00,
2013-01-08 02:35:00,30.2,26.0,31.29,SW,214,0.0,0.0,84,0.00,,,0.00,VWS V13.01,2013-01-08 07:35:00,
2013-01-08 02:38:00,30.0,25.5,31.29,SW,215,0.0,0.0,83,0.00,,,0.00,VWS V13.01,2013-01-08 07:38:00,
2013-01-08 02:40:00,30.2,26.0,31.29,SW,215,0.0,0.0,84,0.00,,,0.00,VWS V13.01,2013-01-08 07:40:00,
2013-01-08 02:43:00,29.7,25.5,31.29,SW,214,0.0,0.0,84,0.00,,,0.00,VWS V13.01,2013-01-08 07:43:00,
2013-01-08 02:45:00,30.0,25.5,31.29,SW,215,0.0,0.0,83,0.00,,,0.00,VWS V13.01,2013-01-08 07:45:00,
2013-01-08 02:48:00,29.7,25.5,31.29,SW,215,0.0,0.0,84,0.00,,,0.00,VWS V13.01,2013-01-08 07:48:00,
2013-01-08 02:50:00,29.8,25.6,31.29,SW,214,0.0,0.0,84,0.00,,,0.00,VWS V13.01,2013-01-08 07:50:00,
2013-01-08 02:53:00,29.6,25.4,31.29,SW,214,0.0,0.0,84,0.00,,,0.00,VWS V13.01,2013-01-08 07:53:00,
2013-01-08 02:55:00,29.7,25.5,31.29,SW,214,0.0,0.0,84,0.00,,,0.00,VWS V13.01,2013-01-08 07:55:00,
2013-01-08 02:58:00,29.5,25.3,31.29,SW,215,0.0,0.0,84,0.00,,,0.00,VWS V13.01,2013-01-08 07:58:00,
2013-01-08 03:00:00,29.6,25.4,31.29,SW,215,0.0,0.0,84,0.00,,,0.00,VWS V13.01,2013-01-08 08:00:00,
2013-01-08 03:03:00,29.7,25.8,31.29,SW,215,0.0,0.0,85,0.00,,,0.00,VWS V13.01,2013-01-08 08:03:00,
2013-01-08 03:05:00,29.5,25.3,31.29,SW,215,0.0,0.0,84,0.00,,,0.00,VWS V13.01,2013-01-08 08:05:00,
2013-01-08 03:08:00,30.1,26.1,31.29,SW,215,0.0,0.0,85,0.00,,,0.00,VWS V13.01,2013-01-08 08:08:00,
2013-01-08 03:10:00,29.7,25.8,31.29,SW,215,0.0,0.0,85,0.00,,,0.00,VWS V13.01,2013-01-08 08:10:00,
2013-01-08 03:13:00,30.3,26.3,31.29,SW,215,0.0,0.0,85,0.00,,,0.00,VWS V13.01,2013-01-08 08:13:00,
2013-01-08 03:15:00,30.1,26.1,31.29,SW,214,0.0,0.0,85,0.00,,,0.00,VWS V13.01,2013-01-08 08:15:00,
2013-01-08 03:18:00,30.3,26.3,31.29,SW,215,0.0,0.0,85,0.00,,,0.00,VWS V13.01,2013-01-08 08:18:00,
2013-01-08 03:20:00,30.3,26.3,31.29,SW,215,0.0,0.0,85,0.00,,,0.00,VWS V13.01,2013-01-08 08:20:00,
2013-01-08 03:23:00,30.7,27.0,31.29,SW,214,0.0,0.0,86,0.00,,,0.00,VWS V13.01,2013-01-08 08:23:00,
2013-01-08 03:25:00,30.4,26.4,31.29,SW,214,0.0,0.0,85,0.00,,,0.00,VWS V13.01,2013-01-08 08:25:00,
2013-01-08 03:28:00,31.3,27.3,31.29,SW,214,0.0,0.0,85,0.00,,,0.00,VWS V13.01,2013-01-08 08:28:00,
2013-01-08 03:30:00,30.7,27.0,31.29,SW,214,0.0,0.0,86,0.00,,,0.00,VWS V13.01,2013-01-08 08:30:00,
2013-01-08 03:33:00,31.7,27.7,31.29,SW,215,0.0,0.0,85,0.00,,,0.00,VWS V13.01,2013-01-08 08:33:00,
2013-01-08 03:35:00,31.3,27.3,31.29,SW,215,0.0,1.0,85,0.00,,,0.00,VWS V13.01,2013-01-08 08:35:00,
2013-01-08 03:38:00,31.9,27.9,31.29,SW,215,0.0,0.0,85,0.00,,,0.00,VWS V13.01,2013-01-08 08:38:00,
2013-01-08 03:40:00,31.7,27.7,31.29,SW,215,0.0,0.0,85,0.00,,,0.00,VWS V13.01,2013-01-08 08:40:00,
2013-01-08 03:43:00,31.8,27.5,31.29,SW,215,0.0,0.0,84,0.00,,,0.00,VWS V13.01,2013-01-08 08:43:00,
2013-01-08 03:45:00,31.9,27.9,31.29,SW,215,0.0,0.0,85,0.00,,,0.00,VWS V13.01,2013-01-08 08:45:00,
2013-01-08 03:48:00,32.1,28.1,31.29,East,90,0.0,0.0,85,0.00,,,0.00,VWS V13.01,2013-01-08 08:48:00,
2013-01-08 03:50:00,31.8,27.5,31.29,SW,214,0.0,1.0,84,0.00,,,0.00,VWS V13.01,2013-01-08 08:50:00,
2013-01-08 03:53:00,32.6,28.3,31.29,East,90,0.0,0.0,84,0.00,,,0.00,VWS V13.01,2013-01-08 08:53:00,
2013-01-08 03:55:00,32.1,28.1,31.29,East,90,0.0,2.0,85,0.00,,,0.00,VWS V13.01,2013-01-08 08:55:00,
2013-01-08 03:58:00,32.8,28.5,31.29,East,90,0.0,0.0,84,0.00,,,0.00,VWS V13.01,2013-01-08 08:58:00,
2013-01-08 04:00:00,32.6,28.3,31.29,East,90,0.0,2.0,84,0.00,,,0.00,VWS V13.01,2013-01-08 09:00:00,
2013-01-08 04:03:00,32.8,28.2,31.29,East,90,0.0,0.0,83,0.00,,,0.00,VWS V13.01,2013-01-08 09:03:00,
2013-01-08 04:08:00,32.9,28.3,31.29,East,94,0.0,0.0,83,0.00,,,0.00,VWS V13.01,2013-01-08 09:08:00,
2013-01-08 04:13:00,32.7,28.1,31.29,East,93,3.0,3.0,83,0.00,,,0.00,VWS V13.01,2013-01-08 09:13:00,
2013-01-08 04:18:00,32.7,27.8,31.29,East,79,1.0,2.0,82,0.00,,,0.00,VWS V13.01,2013-01-08 09:18:00,
2013-01-08 04:23:00,32.9,28.0,31.29,SE,126,1.0,2.0,82,0.00,,,0.00,VWS V13.01,2013-01-08 09:23:00,
2013-01-08 04:28:00,33.2,28.3,31.29,ESE,123,4.0,5.0,82,0.00,,,0.00,VWS V13.01,2013-01-08 09:28:00,
2013-01-08 04:33:00,33.3,28.1,31.29,NE,48,1.0,1.0,81,0.00,,,0.00,VWS V13.01,2013-01-08 09:33:00,
2013-01-08 04:38:00,33.2,28.0,31.29,SE,146,0.0,0.0,81,0.00,,,0.00,VWS V13.01,2013-01-08 09:38:00,
2013-01-08 04:43:00,33.3,28.1,31.29,East,90,3.0,4.0,81,0.00,,,0.00,VWS V13.01,2013-01-08 09:43:00,
2013-01-08 04:48:00,33.3,28.1,31.29,SE,132,1.0,3.0,81,0.00,,,0.00,VWS V13.01,2013-01-08 09:48:00,
2013-01-08 04:53:00,33.3,28.1,29.96,ESE,115,3.0,3.0,81,0.00,,,0.00,VWS V13.01,2013-01-08 09:53:00,
2013-01-08 04:58:00,33.3,28.1,29.96,ESE,112,3.0,4.0,81,0.00,,,0.00,VWS V13.01,2013-01-08 09:58:00,
2013-01-08 05:03:00,33.4,28.2,29.96,ESE,115,1.0,1.0,81,0.00,,,0.00,VWS V13.01,2013-01-08 10:03:00,
2013-01-08 05:08:00,33.4,28.2,29.96,SSE,150,0.0,1.0,81,0.00,,,0.00,VWS V13.01,2013-01-08 10:08:00,
2013-01-08 05:13:00,33.5,28.3,29.96,SSE,149,0.0,0.0,81,0.00,,,0.00,VWS V13.01,2013-01-08 10:13:00,
2013-01-08 05:18:00,33.6,28.1,29.96,SE,132,1.0,2.0,80,0.00,,,0.00,VWS V13.01,2013-01-08 10:18:00,
2013-01-08 05:23:00,33.7,28.2,29.96,ESE,123,0.0,0.0,80,0.00,,,0.00,VWS V13.01,2013-01-08 10:23:00,
2013-01-08 05:28:00,33.6,28.1,29.96,NE,46,3.0,3.0,80,0.00,,,0.00,VWS V13.01,2013-01-08 10:28:00,
2013-01-08 05:33:00,33.7,28.2,29.96,SSE,150,1.0,1.0,80,0.00,,,0.00,VWS V13.01,2013-01-08 10:33:00,
2013-01-08 05:38:00,33.9,28.4,29.96,ESE,102,5.0,5.0,80,0.00,,,0.00,VWS V13.01,2013-01-08 10:38:00,
2013-01-08 05:43:00,33.9,28.4,29.96,ESE,106,2.0,2.0,80,0.00,,,0.00,VWS V13.01,2013-01-08 10:43:00,
2013-01-08 05:48:00,34.2,28.7,29.96,SE,140,2.0,5.0,80,0.00,,,0.00,VWS V13.01,2013-01-08 10:48:00,
2013-01-08 05:53:00,34.2,28.4,29.98,ESE,103,4.0,6.0,79,0.00,,,0.00,VWS V13.01,2013-01-08 10:53:00,
2013-01-08 05:58:00,34.1,28.3,29.98,SSE,164,2.0,2.0,79,0.00,,,0.00,VWS V13.01,2013-01-08 10:58:00,
2013-01-08 06:03:00,34.0,28.2,29.98,ESE,114,7.0,7.0,79,0.00,,,0.00,VWS V13.01,2013-01-08 11:03:00,
2013-01-08 06:08:00,33.9,28.1,29.98,East,96,8.0,8.0,79,0.00,,,0.00,VWS V13.01,2013-01-08 11:08:00,
2013-01-08 06:13:00,33.8,28.3,28.74,ENE,75,1.0,3.0,80,0.00,,,0.00,VWS V13.01,2013-01-08 11:13:00,
2013-01-08 06:18:00,33.9,28.4,31.28,ESE,106,3.0,5.0,80,0.00,,,0.00,VWS V13.01,2013-01-08 11:18:00,
2013-01-08 06:23:00,34.0,28.5,31.28,East,98,6.0,11.0,80,0.00,,,0.00,VWS V13.01,2013-01-08 11:23:00,
2013-01-08 06:28:00,34.2,28.7,31.28,ENE,63,2.0,4.0,80,0.00,,,0.00,VWS V13.01,2013-01-08 11:28:00,
2013-01-08 06:33:00,34.3,28.8,31.28,SSW,211,3.0,4.0,80,0.00,,,0.00,VWS V13.01,2013-01-08 11:33:00,
2013-01-08 06:38:00,34.4,28.6,31.28,South,174,1.0,1.0,79,0.00,,,0.00,VWS V13.01,2013-01-08 11:38:00,
2013-01-08 06:43:00,34.4,28.6,31.28,SE,138,6.0,6.0,79,0.00,,,0.00,VWS V13.01,2013-01-08 11:43:00,
2013-01-08 06:48:00,34.4,28.6,31.28,ENE,67,3.0,7.0,79,0.00,,,0.00,VWS V13.01,2013-01-08 11:48:00,
2013-01-08 06:53:00,34.4,28.9,31.28,SE,144,2.0,4.0,80,0.00,,,0.00,VWS V13.01,2013-01-08 11:53:00,
2013-01-08 06:58:00,34.6,28.8,31.15,SE,132,6.0,6.0,79,0.00,,,0.00,VWS V13.01,2013-01-08 11:58:00,
2013-01-08 07:03:00,34.7,29.2,31.15,SE,139,1.0,3.0,80,0.00,,,0.00,VWS V13.01,2013-01-08 12:03:00,
2013-01-08 07:08:00,34.9,29.4,31.15,NE,55,3.0,6.0,80,0.00,,,0.00,VWS V13.01,2013-01-08 12:08:00,
2013-01-08 07:13:00,35.2,29.7,31.15,East,80,1.0,2.0,80,0.00,,,0.00,VWS V13.01,2013-01-08 12:13:00,
2013-01-08 07:18:00,35.2,29.7,31.15,SW,214,4.0,4.0,80,0.00,,,0.00,VWS V13.01,2013-01-08 12:18:00,
2013-01-08 07:23:00,35.3,29.8,31.15,South,172,0.0,3.0,80,0.00,,,0.00,VWS V13.01,2013-01-08 12:23:00,
2013-01-08 07:28:00,35.4,29.9,31.15,SE,142,2.0,4.0,80,0.00,,,0.00,VWS V13.01,2013-01-08 12:28:00,
2013-01-08 07:33:00,35.4,30.2,31.15,East,82,4.0,5.0,81,0.00,,,0.00,VWS V13.01,2013-01-08 12:33:00,
2013-01-08 07:38:00,35.3,30.1,31.15,East,83,4.0,4.0,81,0.00,,,0.00,VWS V13.01,2013-01-08 12:38:00,
2013-01-08 07:43:00,35.2,30.0,31.15,SE,136,0.0,0.0,81,0.00,,,0.00,VWS V13.01,2013-01-08 12:43:00,
2013-01-08 07:48:00,35.0,30.1,31.15,ENE,68,0.0,0.0,82,0.00,,,0.00,VWS V13.01,2013-01-08 12:48:00,
2013-01-08 07:53:00,35.0,30.1,31.15,SE,126,2.0,2.0,82,0.00,,,0.00,VWS V13.01,2013-01-08 12:53:00,
2013-01-08 07:58:00,35.1,30.2,31.15,ENE,74,1.0,4.0,82,0.00,,,0.00,VWS V13.01,2013-01-08 12:58:00,
2013-01-08 08:03:00,35.3,30.4,31.15,ESE,109,1.0,4.0,82,0.00,,,0.00,VWS V13.01,2013-01-08 13:03:00,
2013-01-08 08:08:00,35.5,30.6,31.15,ESE,104,2.0,3.0,82,0.00,,,0.00,VWS V13.01,2013-01-08 13:08:00,
2013-01-08 08:13:00,35.7,30.8,31.15,East,88,3.0,6.0,82,0.00,,,0.00,VWS V13.01,2013-01-08 13:13:00,
2013-01-08 08:18:00,35.9,31.0,31.15,East,98,3.0,6.0,82,0.00,,,0.00,VWS V13.01,2013-01-08 13:18:00,
2013-01-08 08:23:00,36.1,31.1,31.15,East,82,2.0,2.0,82,0.00,,,0.00,VWS V13.01,2013-01-08 13:23:00,
2013-01-08 08:28:00,36.3,31.3,31.15,SE,140,4.0,4.0,82,0.00,,,0.00,VWS V13.01,2013-01-08 13:28:00,
2013-01-08 08:33:00,36.5,31.2,31.15,ESE,113,2.0,2.0,81,0.00,,,0.00,VWS V13.01,2013-01-08 13:33:00,
2013-01-08 08:38:00,36.8,31.5,31.15,ESE,109,2.0,4.0,81,0.00,,,0.00,VWS V13.01,2013-01-08 13:38:00,
2013-01-08 08:43:00,37.0,31.7,31.15,SSE,164,0.0,1.0,81,0.00,,,0.00,VWS V13.01,2013-01-08 13:43:00,
2013-01-08 08:48:00,37.4,31.8,31.15,East,83,4.0,4.0,80,0.00,,,0.00,VWS V13.01,2013-01-08 13:48:00,
2013-01-08 08:53:00,37.9,32.3,31.15,SE,138,4.0,4.0,80,0.00,,,0.00,VWS V13.01,2013-01-08 13:53:00,
2013-01-08 08:58:00,38.2,32.3,31.15,ESE,111,0.0,1.0,79,0.00,,,0.00,VWS V13.01,2013-01-08 13:58:00,
2013-01-08 09:03:00,38.6,32.7,31.15,ESE,109,2.0,3.0,79,0.00,,,0.00,VWS V13.01,2013-01-08 14:03:00,
2013-01-08 09:08:00,39.0,33.0,31.15,ESE,114,1.0,3.0,79,0.00,,,0.00,VWS V13.01,2013-01-08 14:08:00,
2013-01-08 09:13:00,39.5,33.2,31.15,South,175,0.0,3.0,78,0.00,,,0.00,VWS V13.01,2013-01-08 14:13:00,
2013-01-08 09:18:00,40.0,33.7,31.15,ENE,67,2.0,2.0,78,0.00,,,0.00,VWS V13.01,2013-01-08 14:18:00,
2013-01-08 09:23:00,40.2,33.6,31.15,South,191,4.0,4.0,77,0.00,,,0.00,VWS V13.01,2013-01-08 14:23:00,
2013-01-08 09:28:00,40.4,33.8,31.15,South,169,2.0,3.0,77,0.00,,,0.00,VWS V13.01,2013-01-08 14:28:00,
2013-01-08 09:33:00,40.8,33.8,31.15,ENE,75,2.0,4.0,76,0.00,,,0.00,VWS V13.01,2013-01-08 14:33:00,
2013-01-08 09:38:00,41.1,33.8,31.15,ESE,121,1.0,2.0,75,0.00,,,0.00,VWS V13.01,2013-01-08 14:38:00,
2013-01-08 09:43:00,41.4,34.1,31.15,South,178,3.0,3.0,75,0.00,,,0.00,VWS V13.01,2013-01-08 14:43:00,
2013-01-08 09:48:00,41.7,34.4,31.15,ESE,111,2.0,3.0,75,0.00,,,0.00,VWS V13.01,2013-01-08 14:48:00,
2013-01-08 09:53:00,42.2,34.2,31.15,East,99,1.0,4.0,73,0.00,,,0.00,VWS V13.01,2013-01-08 14:53:00,
2013-01-08 09:58:00,42.2,34.2,31.15,SSE,163,2.0,5.0,73,0.00,,,0.00,VWS V13.01,2013-01-08 14:58:00,
2013-01-08 10:03:00,42.6,34.9,31.15,SSE,158,5.0,5.0,74,0.00,,,0.00,VWS V13.01,2013-01-08 15:03:00,
2013-01-08 10:08:00,42.9,34.5,24.94,SE,124,6.0,6.0,72,0.00,,,0.00,VWS V13.01,2013-01-08 15:08:00,
2013-01-08 10:13:00,43.2,34.8,24.96,SE,144,7.0,8.0,72,0.00,,,0.00,VWS V13.01,2013-01-08 15:13:00,
2013-01-08 10:18:00,43.5,34.7,24.96,SE,128,5.0,6.0,71,0.00,,,0.00,VWS V13.01,2013-01-08 15:18:00,
2013-01-08 10:23:00,43.7,34.9,24.96,SSE,148,2.0,6.0,71,0.00,,,0.00,VWS V13.01,2013-01-08 15:23:00,
2013-01-08 10:28:00,44.3,35.2,24.95,ENE,74,5.0,9.0,70,0.00,,,0.00,VWS V13.01,2013-01-08 15:28:00,
2013-01-08 10:33:00,44.4,35.2,24.88,NNE,33,3.0,4.0,70,0.00,,,0.00,VWS V13.01,2013-01-08 15:33:00,
2013-01-08 10:38:00,45.5,35.9,24.88,SSE,154,9.0,9.0,69,0.00,,,0.00,VWS V13.01,2013-01-08 15:38:00,
2013-01-08 10:43:00,45.5,35.6,27.41,NE,49,3.0,3.0,68,0.00,,,0.00,VWS V13.01,2013-01-08 15:43:00,
2013-01-08 10:48:00,45.9,35.6,27.41,SE,125,1.0,3.0,67,0.00,,,0.00,VWS V13.01,2013-01-08 15:48:00,
2013-01-08 10:53:00,45.9,35.6,27.41,ESE,117,4.0,6.0,67,0.00,,,0.00,VWS V13.01,2013-01-08 15:53:00,
2013-01-08 10:58:00,46.1,35.8,27.41,ENE,69,5.0,7.0,67,0.00,,,0.00,VWS V13.01,2013-01-08 15:58:00,
2013-01-08 11:03:00,46.0,35.7,27.41,East,84,2.0,3.0,67,0.00,,,0.00,VWS V13.01,2013-01-08 16:03:00,
2013-01-08 11:08:00,46.2,35.9,27.41,SE,125,1.0,2.0,67,0.00,,,0.00,VWS V13.01,2013-01-08 16:08:00,
2013-01-08 11:13:00,46.3,36.0,29.93,ESE,107,4.0,7.0,67,0.00,,,0.00,VWS V13.01,2013-01-08 16:13:00,
2013-01-08 11:18:00,46.3,36.0,27.40,SE,126,2.0,5.0,67,0.00,,,0.00,VWS V13.01,2013-01-08 16:18:00,
2013-01-08 11:23:00,47.0,36.2,27.40,ENE,65,2.0,4.0,66,0.00,,,0.00,VWS V13.01,2013-01-08 16:23:00,
2013-01-08 11:28:00,47.1,36.0,26.14,ESE,110,3.0,6.0,65,0.00,,,0.00,VWS V13.01,2013-01-08 16:28:00,
2013-01-08 11:33:00,47.1,36.3,26.14,NNE,29,5.0,7.0,66,0.00,,,0.00,VWS V13.01,2013-01-08 16:33:00,
2013-01-08 11:38:00,47.2,36.4,26.14,NE,51,4.0,4.0,66,0.00,,,0.00,VWS V13.01,2013-01-08 16:38:00,
2013-01-08 11:43:00,47.3,36.5,26.14,ENE,57,6.0,6.0,66,0.00,,,0.00,VWS V13.01,2013-01-08 16:43:00,
2013-01-08 11:48:00,47.4,36.2,26.14,SSE,151,3.0,5.0,65,0.00,,,0.00,VWS V13.01,2013-01-08 16:48:00,
2013-01-08 11:53:00,47.4,36.2,27.40,NE,45,3.0,4.0,65,0.00,,,0.00,VWS V13.01,2013-01-08 16:53:00,
2013-01-08 11:58:00,47.8,37.0,28.66,NE,49,4.0,4.0,66,0.00,,,0.00,VWS V13.01,2013-01-08 16:58:00,
2013-01-08 12:03:00,48.1,36.9,28.66,NE,50,4.0,4.0,65,0.00,,,0.00,VWS V13.01,2013-01-08 17:03:00,
2013-01-08 12:08:00,48.7,37.1,28.66,SSE,149,2.0,6.0,64,0.00,,,0.00,VWS V13.01,2013-01-08 17:08:00,
2013-01-08 12:13:00,48.8,36.8,28.66,ENE,59,3.0,4.0,63,0.00,,,0.00,VWS V13.01,2013-01-08 17:13:00,
2013-01-08 12:18:00,48.8,36.8,28.66,ESE,107,6.0,6.0,63,0.00,,,0.00,VWS V13.01,2013-01-08 17:18:00,
2013-01-08 12:23:00,48.9,36.9,16.69,East,96,6.0,9.0,63,0.00,,,0.00,VWS V13.01,2013-01-08 17:23:00,
2013-01-08 12:28:00,49.0,37.0,16.69,NE,39,3.0,4.0,63,0.00,,,0.00,VWS V13.01,2013-01-08 17:28:00,
2013-01-08 12:33:00,49.8,37.3,16.69,NNE,22,5.0,5.0,62,0.00,,,0.00,VWS V13.01,2013-01-08 17:33:00,
2013-01-08 12:38:00,50.2,37.7,16.69,NE,49,4.0,5.0,62,0.00,,,0.00,VWS V13.01,2013-01-08 17:38:00,
2013-01-08 12:43:00,50.5,37.6,16.69,ESE,104,2.0,2.0,61,0.00,,,0.00,VWS V13.01,2013-01-08 17:43:00,
2013-01-08 12:48:00,51.0,37.6,16.69,East,94,2.0,3.0,60,0.00,,,0.00,VWS V13.01,2013-01-08 17:48:00,
2013-01-08 12:53:00,51.1,37.7,16.69,ENE,71,1.0,3.0,60,0.00,,,0.00,VWS V13.01,2013-01-08 17:53:00,
2013-01-08 12:58:00,51.1,37.7,16.69,NE,50,4.0,4.0,60,0.00,,,0.00,VWS V13.01,2013-01-08 17:58:00,
2013-01-08 13:03:00,51.8,37.9,16.69,ENE,61,4.0,4.0,59,0.00,,,0.00,VWS V13.01,2013-01-08 18:03:00,
2013-01-08 13:08:00,51.9,38.5,16.69,ENE,61,2.0,4.0,60,0.00,,,0.00,VWS V13.01,2013-01-08 18:08:00,
2013-01-08 13:13:00,52.3,38.0,16.69,SE,134,2.0,2.0,58,0.00,,,0.00,VWS V13.01,2013-01-08 18:13:00,
2013-01-08 13:18:00,52.1,37.8,16.69,ENE,67,3.0,5.0,58,0.00,,,0.00,VWS V13.01,2013-01-08 18:18:00,
2013-01-08 13:23:00,52.3,38.4,24.88,East,91,2.0,2.0,59,0.00,,,0.00,VWS V13.01,2013-01-08 18:23:00,
2013-01-08 13:28:00,52.7,37.9,31.18,NE,53,2.0,2.0,57,0.00,,,0.00,VWS V13.01,2013-01-08 18:28:00,
2013-01-08 13:33:00,52.8,38.0,24.88,NNE,26,3.0,6.0,57,0.00,,,0.00,VWS V13.01,2013-01-08 18:33:00,
2013-01-08 13:38:00,52.6,37.8,24.87,East,90,2.0,5.0,57,0.00,,,0.00,VWS V13.01,2013-01-08 18:38:00,
2013-01-08 13:43:00,52.6,37.8,27.39,ENE,73,5.0,6.0,57,0.00,,,0.00,VWS V13.01,2013-01-08 18:43:00,
2013-01-08 13:48:00,53.3,38.5,27.39,East,80,4.0,4.0,57,0.00,,,0.00,VWS V13.01,2013-01-08 18:48:00,
2013-01-08 13:53:00,53.6,38.3,27.39,ENE,67,8.0,8.0,56,0.00,,,0.00,VWS V13.01,2013-01-08 18:53:00,
2013-01-08 13:58:00,53.7,37.9,27.39,East,86,1.0,4.0,55,0.00,,,0.00,VWS V13.01,2013-01-08 18:58:00,
2013-01-08 14:03:00,53.9,38.1,27.39,East,83,2.0,3.0,55,0.00,,,0.00,VWS V13.01,2013-01-08 19:03:00,
2013-01-08 14:08:00,54.2,37.9,27.39,ESE,114,2.0,2.0,54,0.00,,,0.00,VWS V13.01,2013-01-08 19:08:00,
2013-01-08 14:13:00,54.6,38.3,27.39,ESE,115,0.0,1.0,54,0.00,,,0.00,VWS V13.01,2013-01-08 19:13:00,
2013-01-08 14:18:00,55.1,37.8,27.39,SE,140,1.0,2.0,52,0.00,,,0.00,VWS V13.01,2013-01-08 19:18:00,
2013-01-08 14:23:00,55.8,38.5,27.39,NE,56,1.0,3.0,52,0.00,,,0.00,VWS V13.01,2013-01-08 19:23:00,
2013-01-08 14:28:00,56.5,39.1,27.39,ENE,64,0.0,1.0,52,0.00,,,0.00,VWS V13.01,2013-01-08 19:28:00,
2013-01-08 14:33:00,56.4,38.5,23.24,NE,53,3.0,3.0,51,0.00,,,0.00,VWS V13.01,2013-01-08 19:33:00,
2013-01-08 14:38:00,55.9,38.0,23.24,East,95,1.0,2.0,51,0.00,,,0.00,VWS V13.01,2013-01-08 19:38:00,
2013-01-08 14:43:00,56.3,38.4,23.24,East,90,3.0,5.0,51,0.00,,,0.00,VWS V13.01,2013-01-08 19:43:00,
2013-01-08 14:48:00,55.6,37.8,23.24,ESE,106,4.0,6.0,51,0.00,,,0.00,VWS V13.01,2013-01-08 19:48:00,
2013-01-08 14:53:00,56.0,38.2,23.24,East,94,3.0,4.0,51,0.00,,,0.00,VWS V13.01,2013-01-08 19:53:00,
2013-01-08 14:58:00,56.0,38.2,23.25,SE,137,4.0,5.0,51,0.00,,,0.00,VWS V13.01,2013-01-08 19:58:00,
2013-01-08 15:03:00,55.7,37.9,23.25,ESE,105,3.0,5.0,51,0.00,,,0.00,VWS V13.01,2013-01-08 20:03:00,
2013-01-08 15:08:00,55.6,37.8,23.25,NE,48,7.0,7.0,51,0.00,,,0.00,VWS V13.01,2013-01-08 20:08:00,
2013-01-08 15:13:00,55.3,37.5,23.25,ESE,114,0.0,2.0,51,0.00,,,0.00,VWS V13.01,2013-01-08 20:13:00,
2013-01-08 15:18:00,55.8,38.0,23.24,ESE,112,2.0,3.0,51,0.00,,,0.00,VWS V13.01,2013-01-08 20:18:00,
2013-01-08 15:23:00,55.3,37.5,23.24,ENE,74,3.0,3.0,51,0.00,,,0.00,VWS V13.01,2013-01-08 20:23:00,
2013-01-08 15:28:00,55.5,37.7,23.24,ENE,59,6.0,6.0,51,0.00,,,0.00,VWS V13.01,2013-01-08 20:28:00,
2013-01-08 15:33:00,55.2,37.4,23.24,SE,134,3.0,5.0,51,0.00,,,0.00,VWS V13.01,2013-01-08 20:33:00,
2013-01-08 15:38:00,55.6,37.8,23.24,ENE,63,5.0,5.0,51,0.00,,,0.00,VWS V13.01,2013-01-08 20:38:00,
2013-01-08 15:43:00,55.5,37.7,23.24,East,85,8.0,8.0,51,0.00,,,0.00,VWS V13.01,2013-01-08 20:43:00,
2013-01-08 15:48:00,55.2,37.9,23.24,ESE,109,3.0,3.0,52,0.00,,,0.00,VWS V13.01,2013-01-08 20:48:00,
2013-01-08 15:53:00,54.6,37.8,23.24,East,88,3.0,3.0,53,0.00,,,0.00,VWS V13.01,2013-01-08 20:53:00,
2013-01-08 15:58:00,54.4,38.1,23.24,ENE,61,2.0,3.0,54,0.00,,,0.00,VWS V13.01,2013-01-08 20:58:00,
2013-01-08 16:03:00,54.2,37.9,23.24,ENE,74,0.0,3.0,54,0.00,,,0.00,VWS V13.01,2013-01-08 21:03:00,
2013-01-08 16:08:00,54.2,37.9,23.24,ENE,69,4.0,4.0,54,0.00,,,0.00,VWS V13.01,2013-01-08 21:08:00,
2013-01-08 16:13:00,54.0,38.2,23.24,NNE,29,4.0,4.0,55,0.00,,,0.00,VWS V13.01,2013-01-08 21:13:00,
2013-01-08 16:18:00,54.4,38.1,23.24,ENE,75,0.0,1.0,54,0.00,,,0.00,VWS V13.01,2013-01-08 21:18:00,
2013-01-08 16:23:00,54.6,38.3,23.24,ENE,65,3.0,4.0,54,0.00,,,0.00,VWS V13.01,2013-01-08 21:23:00,
2013-01-08 16:28:00,54.3,38.5,23.24,NE,48,3.0,5.0,55,0.00,,,0.00,VWS V13.01,2013-01-08 21:28:00,
2013-01-08 16:33:00,53.9,38.6,23.24,ENE,65,3.0,3.0,56,0.00,,,0.00,VWS V13.01,2013-01-08 21:33:00,
2013-01-08 16:38:00,53.3,38.5,23.24,ENE,68,1.0,2.0,57,0.00,,,0.00,VWS V13.01,2013-01-08 21:38:00,
2013-01-08 16:43:00,53.2,38.4,23.24,East,92,2.0,4.0,57,0.00,,,0.00,VWS V13.01,2013-01-08 21:43:00,
2013-01-08 16:48:00,52.8,38.5,23.24,ENE,76,4.0,4.0,58,0.00,,,0.00,VWS V13.01,2013-01-08 21:48:00,
2013-01-08 16:53:00,52.5,38.2,23.24,NE,49,3.0,3.0,58,0.00,,,0.00,VWS V13.01,2013-01-08 21:53:00,
2013-01-08 16:58:00,52.4,38.5,23.24,NE,51,4.0,4.0,59,0.00,,,0.00,VWS V13.01,2013-01-08 21:58:00,
2013-01-08 17:03:00,52.4,38.5,23.24,NE,55,1.0,2.0,59,0.00,,,0.00,VWS V13.01,2013-01-08 22:03:00,
2013-01-08 17:08:00,52.3,38.4,23.24,NE,55,1.0,2.0,59,0.00,,,0.00,VWS V13.01,2013-01-08 22:08:00,
2013-01-08 17:13:00,52.3,38.4,23.24,NE,55,0.0,0.0,59,0.00,,,0.00,VWS V13.01,2013-01-08 22:13:00,
2013-01-08 17:18:00,52.2,38.3,23.24,NE,55,1.0,2.0,59,0.00,,,0.00,VWS V13.01,2013-01-08 22:18:00,
2013-01-08 17:23:00,51.7,38.3,23.24,NE,55,2.0,2.0,60,0.00,,,0.00,VWS V13.01,2013-01-08 22:23:00,
2013-01-08 17:29:00,51.5,38.1,23.24,NE,55,1.0,1.0,60,0.00,,,0.00,VWS V13.01,2013-01-08 22:29:00,
2013-01-08 17:34:00,51.5,38.1,23.24,NE,55,0.0,0.0,60,0.00,,,0.00,VWS V13.01,2013-01-08 22:34:00,
2013-01-08 17:39:00,51.1,38.1,24.87,NE,55,2.0,2.0,61,0.00,,,0.00,VWS V13.01,2013-01-08 22:39:00,
2013-01-08 17:44:00,50.9,38.0,24.87,NE,55,0.0,1.0,61,0.00,,,0.00,VWS V13.01,2013-01-08 22:44:00,
2013-01-08 17:49:00,50.8,37.8,24.87,NE,55,1.0,1.0,61,0.00,,,0.00,VWS V13.01,2013-01-08 22:49:00,
2013-01-08 17:54:00,50.8,37.8,24.87,NE,55,0.0,1.0,61,0.00,,,0.00,VWS V13.01,2013-01-08 22:54:00,
2013-01-08 17:59:00,50.8,37.8,24.87,NE,55,0.0,0.0,61,0.00,,,0.00,VWS V13.01,2013-01-08 22:59:00,
2013-01-08 18:04:00,50.1,37.6,24.87,NE,56,0.0,0.0,62,0.00,,,0.00,VWS V13.01,2013-01-08 23:04:00,
2013-01-08 18:09:00,49.3,38.0,24.87,NE,56,0.0,0.0,65,0.00,,,0.00,VWS V13.01,2013-01-08 23:09:00,
2013-01-08 18:14:00,49.2,38.0,24.87,NE,55,0.0,1.0,65,0.00,,,0.00,VWS V13.01,2013-01-08 23:14:00,
2013-01-08 18:19:00,48.8,37.6,24.87,NE,56,0.0,0.0,65,0.00,,,0.00,VWS V13.01,2013-01-08 23:19:00,
2013-01-08 18:24:00,48.4,37.6,24.87,NE,56,0.0,0.0,66,0.00,,,0.00,VWS V13.01,2013-01-08 23:24:00,
2013-01-08 18:29:00,48.6,37.8,23.24,NE,55,0.0,1.0,66,0.00,,,0.00,VWS V13.01,2013-01-08 23:29:00,
2013-01-08 18:34:00,48.9,37.7,23.24,NE,55,0.0,1.0,65,0.00,,,0.00,VWS V13.01,2013-01-08 23:34:00,
2013-01-08 18:39:00,49.1,37.9,23.24,NE,55,0.0,2.0,65,0.00,,,0.00,VWS V13.01,2013-01-08 23:39:00,
2013-01-08 18:44:00,49.1,37.9,23.24,NE,55,0.0,1.0,65,0.00,,,0.00,VWS V13.01,2013-01-08 23:44:00,
2013-01-08 18:49:00,48.8,37.6,23.24,NE,56,0.0,0.0,65,0.00,,,0.00,VWS V13.01,2013-01-08 23:49:00,
2013-01-08 18:54:00,48.5,37.3,23.24,NE,55,0.0,0.0,65,0.00,,,0.00,VWS V13.01,2013-01-08 23:54:00,
2013-01-08 18:59:00,48.1,37.3,23.24,NE,55,0.0,0.0,66,0.00,,,0.00,VWS V13.01,2013-01-08 23:59:00,
2013-01-08 19:04:00,47.9,37.1,23.24,NE,55,0.0,0.0,66,0.00,,,0.00,VWS V13.01,2013-01-09 00:04:00,
2013-01-08 19:09:00,47.8,37.0,23.24,NE,55,0.0,1.0,66,0.00,,,0.00,VWS V13.01,2013-01-09 00:09:00,
2013-01-08 19:14:00,47.7,36.9,23.24,NE,55,0.0,1.0,66,0.00,,,0.00,VWS V13.01,2013-01-09 00:14:00,
2013-01-08 19:19:00,47.4,37.0,23.24,NE,55,0.0,1.0,67,0.00,,,0.00,VWS V13.01,2013-01-09 00:19:00,
2013-01-08 19:24:00,46.7,36.7,23.24,NE,55,0.0,0.0,68,0.00,,,0.00,VWS V13.01,2013-01-09 00:24:00,
2013-01-08 19:29:00,46.3,36.3,23.24,NE,55,0.0,0.0,68,0.00,,,0.00,VWS V13.01,2013-01-09 00:29:00,
2013-01-08 19:34:00,45.8,36.2,23.24,NE,55,0.0,1.0,69,0.00,,,0.00,VWS V13.01,2013-01-09 00:34:00,
2013-01-08 19:39:00,45.2,36.0,23.24,NE,55,0.0,0.0,70,0.00,,,0.00,VWS V13.01,2013-01-09 00:39:00,
2013-01-08 19:44:00,44.8,35.6,23.24,NE,55,0.0,0.0,70,0.00,,,0.00,VWS V13.01,2013-01-09 00:44:00,
2013-01-08 19:49:00,44.6,36.2,23.24,NE,55,0.0,0.0,72,0.00,,,0.00,VWS V13.01,2013-01-09 00:49:00,
2013-01-08 19:54:00,44.7,36.2,23.24,NE,55,0.0,0.0,72,0.00,,,0.00,VWS V13.01,2013-01-09 00:54:00,
2013-01-08 19:59:00,44.7,36.2,23.24,NE,55,0.0,0.0,72,0.00,,,0.00,VWS V13.01,2013-01-09 00:59:00,
2013-01-08 20:04:00,44.5,36.0,23.24,NE,56,0.0,0.0,72,0.00,,,0.00,VWS V13.01,2013-01-09 01:04:00,
2013-01-08 20:09:00,44.4,36.0,23.24,NE,55,0.0,0.0,72,0.00,,,0.00,VWS V13.01,2013-01-09 01:09:00,
2013-01-08 20:14:00,44.2,35.8,23.24,NE,55,0.0,0.0,72,0.00,,,0.00,VWS V13.01,2013-01-09 01:14:00,
2013-01-08 20:19:00,43.9,35.8,23.24,NE,55,0.0,0.0,73,0.00,,,0.00,VWS V13.01,2013-01-09 01:19:00,
2013-01-08 20:24:00,43.6,35.5,23.24,NE,56,0.0,0.0,73,0.00,,,0.00,VWS V13.01,2013-01-09 01:24:00,
2013-01-08 20:29:00,43.3,35.2,23.24,NE,55,0.0,0.0,73,0.00,,,0.00,VWS V13.01,2013-01-09 01:29:00,
2013-01-08 20:34:00,42.9,35.2,23.24,NE,55,0.0,0.0,74,0.00,,,0.00,VWS V13.01,2013-01-09 01:34:00,
2013-01-08 20:39:00,42.7,35.0,23.24,NE,55,0.0,0.0,74,0.00,,,0.00,VWS V13.01,2013-01-09 01:39:00,
2013-01-08 20:44:00,42.7,35.3,23.24,NE,56,0.0,1.0,75,0.00,,,0.00,VWS V13.01,2013-01-09 01:44:00,
2013-01-08 20:49:00,43.0,35.6,23.24,NE,55,0.0,0.0,75,0.00,,,0.00,VWS V13.01,2013-01-09 01:49:00,
2013-01-08 20:54:00,43.2,35.8,23.24,NE,56,0.0,0.0,75,0.00,,,0.00,VWS V13.01,2013-01-09 01:54:00,
2013-01-08 20:59:00,43.1,35.7,23.24,NE,55,0.0,1.0,75,0.00,,,0.00,VWS V13.01,2013-01-09 01:59:00,
2013-01-08 21:04:00,43.2,35.8,23.24,NE,55,0.0,0.0,75,0.00,,,0.00,VWS V13.01,2013-01-09 02:04:00,
2013-01-08 21:09:00,43.3,35.9,23.24,NE,55,0.0,0.0,75,0.00,,,0.00,VWS V13.01,2013-01-09 02:09:00,
2013-01-08 21:14:00,43.2,35.5,23.24,NE,55,0.0,0.0,74,0.00,,,0.00,VWS V13.01,2013-01-09 02:14:00,
2013-01-08 21:19:00,43.1,35.7,23.24,NE,55,0.0,0.0,75,0.00,,,0.00,VWS V13.01,2013-01-09 02:19:00,
2013-01-08 21:24:00,42.9,35.2,23.24,NE,56,0.0,0.0,74,0.00,,,0.00,VWS V13.01,2013-01-09 02:24:00,
2013-01-08 21:29:00,42.5,34.8,23.24,NE,56,0.0,0.0,74,0.00,,,0.00,VWS V13.01,2013-01-09 02:29:00,
2013-01-08 21:34:00,42.2,34.9,23.24,NE,55,0.0,0.0,75,0.00,,,0.00,VWS V13.01,2013-01-09 02:34:00,
2013-01-08 21:39:00,41.8,34.8,23.24,NE,55,0.0,1.0,76,0.00,,,0.00,VWS V13.01,2013-01-09 02:39:00,
2013-01-08 21:44:00,41.5,34.5,23.24,NE,55,0.0,0.0,76,0.00,,,0.00,VWS V13.01,2013-01-09 02:44:00,
2013-01-08 21:49:00,41.1,34.1,23.24,NE,55,0.0,0.0,76,0.00,,,0.00,VWS V13.01,2013-01-09 02:49:00,
2013-01-08 21:54:00,40.6,34.0,23.24,NE,55,0.0,1.0,77,0.00,,,0.00,VWS V13.01,2013-01-09 02:54:00,
2013-01-08 21:59:00,40.3,33.7,23.24,NE,55,0.0,0.0,77,0.00,,,0.00,VWS V13.01,2013-01-09 02:59:00,
2013-01-08 22:04:00,40.1,33.8,23.24,NE,55,0.0,0.0,78,0.00,,,0.00,VWS V13.01,2013-01-09 03:04:00,
2013-01-08 22:09:00,39.9,33.6,23.24,NE,55,0.0,0.0,78,0.00,,,0.00,VWS V13.01,2013-01-09 03:09:00,
2013-01-08 22:14:00,39.8,33.8,23.24,NE,55,0.0,0.0,79,0.00,,,0.00,VWS V13.01,2013-01-09 03:14:00,
2013-01-08 22:19:00,39.7,33.7,23.24,NE,55,0.0,0.0,79,0.00,,,0.00,VWS V13.01,2013-01-09 03:19:00,
2013-01-08 22:24:00,39.5,33.8,23.24,NE,55,0.0,0.0,80,0.00,,,0.00,VWS V13.01,2013-01-09 03:24:00,
2013-01-08 22:29:00,39.3,33.7,23.24,NE,55,0.0,0.0,80,0.00,,,0.00,VWS V13.01,2013-01-09 03:29:00,
2013-01-08 22:34:00,39.3,33.7,23.24,NE,55,0.0,0.0,80,0.00,,,0.00,VWS V13.01,2013-01-09 03:34:00,
2013-01-08 22:39:00,39.2,33.9,24.87,NE,56,0.0,0.0,81,0.00,,,0.00,VWS V13.01,2013-01-09 03:39:00,
2013-01-08 22:44:00,39.0,33.7,24.87,NE,55,0.0,0.0,81,0.00,,,0.00,VWS V13.01,2013-01-09 03:44:00,
2013-01-08 22:49:00,38.9,33.6,24.87,NE,55,0.0,0.0,81,0.00,,,0.00,VWS V13.01,2013-01-09 03:49:00,
2013-01-08 22:54:00,38.7,33.4,24.87,NE,55,0.0,0.0,81,0.00,,,0.00,VWS V13.01,2013-01-09 03:54:00,
2013-01-08 22:59:00,39.1,34.1,24.87,NE,56,0.0,0.0,82,0.00,,,0.00,VWS V13.01,2013-01-09 03:59:00,
2013-01-08 23:04:00,38.9,33.6,24.87,NE,55,0.0,0.0,81,0.00,,,0.00,VWS V13.01,2013-01-09 04:04:00,
2013-01-08 23:09:00,38.8,33.5,23.24,NE,55,0.0,0.0,81,0.00,,,0.00,VWS V13.01,2013-01-09 04:09:00,
2013-01-08 23:14:00,38.9,33.6,23.24,NE,56,0.0,0.0,81,0.00,,,0.00,VWS V13.01,2013-01-09 04:14:00,
2013-01-08 23:19:00,38.6,33.3,23.24,NE,55,0.0,0.0,81,0.00,,,0.00,VWS V13.01,2013-01-09 04:19:00,
2013-01-08 23:24:00,38.3,33.0,23.24,NE,56,0.0,0.0,81,0.00,,,0.00,VWS V13.01,2013-01-09 04:24:00,
2013-01-08 23:29:00,38.1,32.8,23.24,NE,56,0.0,0.0,81,0.00,,,0.00,VWS V13.01,2013-01-09 04:29:00,
2013-01-08 23:34:00,38.1,33.1,23.24,NE,55,0.0,0.0,82,0.00,,,0.00,VWS V13.01,2013-01-09 04:34:00,
2013-01-08 23:39:00,38.0,32.7,23.24,NE,55,0.0,0.0,81,0.00,,,0.00,VWS V13.01,2013-01-09 04:39:00,
2013-01-08 23:44:00,37.8,32.8,23.24,NE,55,0.0,0.0,82,0.00,,,0.00,VWS V13.01,2013-01-09 04:44:00,
2013-01-08 23:49:00,37.7,32.7,23.24,NE,56,0.0,0.0,82,0.00,,,0.00,VWS V13.01,2013-01-09 04:49:00,
2013-01-08 23:54:00,37.5,32.5,23.24,NE,56,0.0,0.0,82,0.00,,,0.00,VWS V13.01,2013-01-09 04:54:00,
2013-01-08 23:59:00,37.3,32.6,23.24,NE,55,0.0,0.0,83,0.00,,,0.00,VWS V13.01,2013-01-09 04:59:00,